Redlawn, Texas
Current Conditions -  °F | °C
As of 10:35 AM on Sunday 21 Dec 2014 (Local Time) from KJSO Reporting Station
Overcast Overcast  
Wind Chill:   Ceiling: 1500
Heat Index:   Visibility: 7mi
Dew Point:   Wind: 6mph
Humidity: 92%   Direction: 170°S
Pressure: 30.14"   Gusts: NA
Location:  31.6384°N, 95.0772°W
Report Text: KJSO 211635Z AUTO 17005KT 7SM OVC015 08/06 A3014 RMK AO2 T00810068
Loading
Personal Weather Stations






























Interactive Weather Map New forecast layout! Learn more

10-Day Weather Forecast

Advertisements
Track Severe Weather on mobile